Time;durP1;ratioP1;P1;durP2;ratioP2;P2;SDS_P1;SDS_P2;PMS_P1;PMS_P2;Temp;Humidity;BMP_temperature;BMP_pressure;BME280_temperature;BME280_humidity;BME280_pressure;Samples;Min_cycle;Max_cycle;Signal;HPM_P1;HPM_P2
2022/09/07 00:00:51;;;;;;;0.30;0.30;;;;;;;13.13;100.00;99323.88;5006081;28;20042;-88
2022/09/07 00:03:17;;;;;;;0.20;0.20;;;;;;;13.16;100.00;99321.53;5028873;28;20459;-91
2022/09/07 00:05:44;;;;;;;0.30;0.30;;;;;;;13.17;100.00;99312.38;5022240;28;20430;-89
2022/09/07 00:08:10;;;;;;;0.30;0.30;;;;;;;13.12;100.00;99314.94;5031964;28;20033;-90
2022/09/07 00:10:37;;;;;;;0.30;0.30;;;;;;;13.01;100.00;99296.00;5030781;28;21583;-87
2022/09/07 00:13:03;;;;;;;0.30;0.30;;;;;;;13.07;100.00;99308.56;5044540;28;20126;-88
2022/09/07 00:15:29;;;;;;;0.30;0.30;;;;;;;13.06;100.00;99320.44;5029842;28;20025;-87
2022/09/07 00:17:55;;;;;;;0.30;0.30;;;;;;;12.96;100.00;99310.97;5002560;28;20060;-87
2022/09/07 00:20:21;;;;;;;0.30;0.30;;;;;;;12.88;100.00;99300.50;5030828;28;20463;-87
2022/09/07 00:22:46;;;;;;;0.30;0.30;;;;;;;12.82;100.00;99297.91;4998903;28;20033;-88
2022/09/07 00:25:12;;;;;;;0.30;0.30;;;;;;;12.77;100.00;99298.56;5030637;28;20037;-87
2022/09/07 00:27:38;;;;;;;0.20;0.20;;;;;;;12.83;100.00;99299.53;5031542;28;20479;-86
2022/09/07 00:30:05;;;;;;;0.30;0.30;;;;;;;12.80;100.00;99294.59;5035986;28;20037;-87
2022/09/07 00:32:30;;;;;;;0.30;0.30;;;;;;;12.70;100.00;99285.19;5027375;28;20064;-88
2022/09/07 00:34:56;;;;;;;0.30;0.30;;;;;;;12.63;100.00;99279.03;5045048;28;20029;-88
2022/09/07 00:37:22;;;;;;;0.30;0.30;;;;;;;12.72;100.00;99293.03;5054401;28;20048;-87
2022/09/07 00:39:48;;;;;;;0.30;0.30;;;;;;;12.66;100.00;99294.75;5047507;28;20041;-86
2022/09/07 00:42:18;;;;;;;0.30;0.30;;;;;;;12.65;100.00;99298.50;5048657;28;20041;-86
2022/09/07 00:45:09;;;;;;;0.30;0.30;;;;;;;12.65;100.00;99301.22;5033359;28;20029;-86
2022/09/07 00:47:58;;;;;;;0.30;0.30;;;;;;;12.73;100.00;99292.81;5018292;28;20099;-88
2022/09/07 00:50:52;;;;;;;0.28;0.28;;;;;;;12.79;100.00;99298.34;5042621;28;20045;-87
2022/09/07 00:53:19;;;;;;;0.30;0.30;;;;;;;12.79;100.00;99287.56;5040526;28;20518;-86
2022/09/07 00:55:46;;;;;;;0.30;0.30;;;;;;;12.79;100.00;99290.25;5010874;28;20112;-90
2022/09/07 00:58:12;;;;;;;0.30;0.30;;;;;;;12.76;100.00;99278.06;5005334;28;20116;-88
2022/09/07 01:00:41;;;;;;;0.22;0.22;;;;;;;12.80;100.00;99289.19;5035896;28;20029;-86
2022/09/07 01:03:07;;;;;;;0.30;0.30;;;;;;;12.63;100.00;99259.34;5017378;28;20499;-86
2022/09/07 01:05:45;;;;;;;0.20;0.20;;;;;;;12.75;100.00;99284.47;5013303;28;20055;-86
2022/09/07 01:08:11;;;;;;;0.20;0.20;;;;;;;12.74;100.00;99280.97;5014314;28;20495;-86
2022/09/07 01:10:39;;;;;;;0.30;0.30;;;;;;;12.69;100.00;99280.81;5027145;28;20041;-90
2022/09/07 01:13:05;;;;;;;0.40;0.40;;;;;;;12.69;100.00;99275.41;4996720;28;20045;-86
2022/09/07 01:15:41;;;;;;;0.30;0.30;;;;;;;12.68;100.00;99283.75;5028951;28;20082;-86
2022/09/07 01:18:16;;;;;;;0.30;0.30;;;;;;;12.51;100.00;99251.16;5014845;28;20045;-90
2022/09/07 01:20:52;;;;;;;0.30;0.30;;;;;;;12.59;100.00;99266.22;4997730;28;20029;-88
2022/09/07 01:23:21;;;;;;;0.30;0.30;;;;;;;12.61;100.00;99280.31;5014071;28;20044;-88
2022/09/07 01:26:08;;;;;;;0.28;0.28;;;;;;;12.60;100.00;99276.78;5029137;28;20391;-90
2022/09/07 01:28:34;;;;;;;0.30;0.30;;;;;;;12.43;100.00;99260.38;5013320;28;20129;-86
2022/09/07 01:31:22;;;;;;;0.40;0.40;;;;;;;12.54;100.00;99281.22;5012562;28;20057;-89
2022/09/07 01:34:04;;;;;;;0.30;0.30;;;;;;;12.59;100.00;99277.00;5029937;28;20112;-86
2022/09/07 01:36:36;;;;;;;0.30;0.30;;;;;;;12.65;100.00;99279.63;5033443;28;20319;-88
2022/09/07 01:39:03;;;;;;;0.30;0.30;;;;;;;12.45;100.00;99238.59;5013130;28;20032;-84
2022/09/07 01:41:35;;;;;;;0.30;0.30;;;;;;;12.76;100.00;99278.88;5028377;28;20049;-89
2022/09/07 01:44:19;;;;;;;0.30;0.30;;;;;;;12.91;100.00;99274.94;5013364;28;20106;-88
2022/09/07 01:46:51;;;;;;;0.30;0.30;;;;;;;12.80;100.00;99265.75;5028009;28;20122;-89
2022/09/07 01:49:22;;;;;;;0.30;0.30;;;;;;;12.83;100.00;99257.19;4994747;28;20044;-88
2022/09/07 01:52:03;;;;;;;0.30;0.30;;;;;;;12.93;100.00;99267.47;5012704;28;20045;-88
2022/09/07 01:54:41;;;;;;;0.30;0.30;;;;;;;12.70;100.00;99251.97;4997240;28;20033;-86
2022/09/07 01:57:15;;;;;;;0.30;0.30;;;;;;;12.76;100.00;99261.88;5028305;28;20145;-87
2022/09/07 01:59:40;;;;;;;0.30;0.30;;;;;;;12.71;100.00;99272.50;5011427;28;20030;-85
2022/09/07 02:02:08;;;;;;;0.30;0.30;;;;;;;12.56;100.00;99254.00;5034111;28;20040;-88
2022/09/07 02:04:48;;;;;;;0.30;0.30;;;;;;;12.55;100.00;99257.78;5030775;28;20030;-88
2022/09/07 02:07:35;;;;;;;0.30;0.30;;;;;;;12.58;100.00;99260.00;5018912;28;20072;-87
2022/09/07 02:10:36;;;;;;;0.30;0.30;;;;;;;12.57;100.00;99252.97;4999099;28;20088;-86
2022/09/07 02:13:09;;;;;;;0.30;0.30;;;;;;;12.62;100.00;99254.97;5029787;28;20108;-86
2022/09/07 02:15:44;;;;;;;0.30;0.30;;;;;;;12.61;100.00;99254.16;5030898;28;20534;-87
2022/09/07 02:18:13;;;;;;;0.30;0.30;;;;;;;12.62;100.00;99253.13;5014283;28;20080;-86
2022/09/07 02:20:46;;;;;;;0.30;0.30;;;;;;;12.59;100.00;99250.84;5016552;28;20402;-88
2022/09/07 02:23:17;;;;;;;;;;;;;;;12.64;100.00;99253.69;4997608;28;20029;-85
2022/09/07 02:25:51;;;;;;;0.30;0.30;;;;;;;12.71;100.00;99265.25;5033599;28;19929;-87
2022/09/07 02:28:25;;;;;;;0.30;0.30;;;;;;;12.71;100.00;99254.44;5012157;28;20073;-86
2022/09/07 02:30:50;;;;;;;0.20;0.20;;;;;;;12.65;100.00;99247.28;5005003;28;20380;-86
2022/09/07 02:33:16;;;;;;;0.30;0.30;;;;;;;12.67;100.00;99258.63;5016788;28;20041;-85
2022/09/07 02:35:42;;;;;;;0.30;0.30;;;;;;;12.63;100.00;99246.66;5034421;28;20029;-85
2022/09/07 02:38:08;;;;;;;0.30;0.30;;;;;;;12.56;100.00;99237.84;5017923;28;20087;-86
2022/09/07 02:40:34;;;;;;;0.30;0.30;;;;;;;12.64;100.00;99242.91;5031844;28;20116;-84
2022/09/07 02:43:03;;;;;;;0.30;0.30;;;;;;;12.64;100.00;99247.50;5034147;28;20456;-86
2022/09/07 02:46:27;;;;;;;0.30;0.30;;;;;;;12.63;100.00;99246.66;5031297;28;20112;-86
2022/09/07 02:49:08;;;;;;;0.30;0.30;;;;;;;12.61;100.00;99242.56;4989851;28;20045;-86
2022/09/07 02:51:42;;;;;;;0.30;0.30;;;;;;;12.52;100.00;99234.78;5030568;28;20038;-86
2022/09/07 02:54:15;;;;;;;0.30;0.30;;;;;;;12.56;100.00;99245.91;5022358;28;20021;-87
2022/09/07 02:56:45;;;;;;;0.30;0.30;;;;;;;12.53;100.00;99249.06;5028844;28;20094;-86
2022/09/07 02:59:20;;;;;;;0.30;0.30;;;;;;;12.46;100.00;99251.88;5031619;28;20111;-87
2022/09/07 03:02:08;;;;;;;0.30;0.30;;;;;;;12.44;100.00;99250.44;4998432;28;20041;-85
2022/09/07 03:05:00;;;;;;;0.30;0.30;;;;;;;12.32;100.00;99229.59;5016909;28;20038;-85
2022/09/07 03:07:35;;;;;;;0.30;0.30;;;;;;;12.58;100.00;99243.00;5060112;28;20498;-86
2022/09/07 03:10:02;;;;;;;0.30;0.30;;;;;;;12.68;100.00;99246.81;5034824;28;20541;-88
2022/09/07 03:12:39;;;;;;;0.20;0.20;;;;;;;12.68;100.00;99236.03;5030117;28;20034;-86
2022/09/07 03:15:06;;;;;;;0.30;0.30;;;;;;;12.74;100.00;99229.72;5027356;28;20029;-85
2022/09/07 03:17:31;;;;;;;0.30;0.30;;;;;;;12.86;100.00;99245.97;5023121;28;20071;-84
2022/09/07 03:19:57;;;;;;;0.30;0.30;;;;;;;12.80;100.00;99232.56;5015643;28;20037;-86
2022/09/07 03:22:22;;;;;;;0.30;0.30;;;;;;;12.89;100.00;99248.22;5032233;28;20029;-86
2022/09/07 03:24:48;;;;;;;0.30;0.30;;;;;;;12.80;100.00;99219.91;5030724;28;20022;-87
2022/09/07 03:27:13;;;;;;;0.30;0.30;;;;;;;12.88;100.00;99224.97;5033120;28;20459;-85
2022/09/07 03:29:39;;;;;;;0.30;0.30;;;;;;;12.88;100.00;99237.63;5030232;28;20029;-85
2022/09/07 03:32:05;;;;;;;0.30;0.30;;;;;;;12.83;100.00;99230.22;5032953;28;20056;-86
2022/09/07 03:34:31;;;;;;;0.30;0.30;;;;;;;12.91;100.00;99232.63;5030228;28;20080;-87
2022/09/07 03:36:56;;;;;;;0.30;0.30;;;;;;;12.91;100.00;99227.25;5032208;28;20034;-86
2022/09/07 03:39:24;;;;;;;0.30;0.30;;;;;;;12.92;100.00;99230.75;5031137;28;20033;-85
2022/09/07 03:41:49;;;;;;;0.30;0.30;;;;;;;12.93;100.00;99229.69;5034181;28;20025;-86
2022/09/07 03:44:15;;;;;;;0.30;0.30;;;;;;;12.96;100.00;99226.53;5014592;28;20037;-86
2022/09/07 03:46:41;;;;;;;0.30;0.30;;;;;;;12.89;100.00;99223.13;5028818;28;20071;-86
2022/09/07 03:49:06;;;;;;;0.30;0.30;;;;;;;12.96;100.00;99230.03;5028132;28;20033;-86
2022/09/07 03:51:32;;;;;;;0.30;0.30;;;;;;;13.00;100.00;99226.91;5031698;28;20354;-85
2022/09/07 03:53:59;;;;;;;0.30;0.30;;;;;;;12.98;100.00;99213.63;5023902;28;20037;-86
2022/09/07 03:56:25;;;;;;;0.30;0.30;;;;;;;12.99;100.00;99220.66;5031055;28;20064;-86
2022/09/07 03:58:52;;;;;;;0.30;0.30;;;;;;;12.96;100.00;99224.66;5064344;28;20017;-87
2022/09/07 04:01:20;;;;;;;0.20;0.20;;;;;;;12.96;100.00;99229.22;5029693;28;20083;-86
2022/09/07 04:03:47;;;;;;;0.30;0.30;;;;;;;12.97;100.00;99228.19;4997305;28;20239;-88
2022/09/07 04:06:13;;;;;;;0.30;0.30;;;;;;;12.95;100.00;99224.88;5031175;28;20037;-87
2022/09/07 04:08:40;;;;;;;0.30;0.30;;;;;;;12.97;100.00;99220.91;5014398;28;20483;-87
2022/09/07 04:11:06;;;;;;;0.30;0.30;;;;;;;12.86;100.00;99196.56;5029921;28;20032;-87
2022/09/07 04:13:33;;;;;;;0.30;0.30;;;;;;;12.96;100.00;99216.56;5031016;28;20029;-88
2022/09/07 04:15:59;;;;;;;0.30;0.30;;;;;;;13.09;100.00;99222.81;4998610;28;20037;-87
2022/09/07 04:18:25;;;;;;;0.30;0.30;;;;;;;13.06;100.00;99224.09;5031080;28;20071;-87
2022/09/07 04:20:51;;;;;;;0.30;0.30;;;;;;;13.10;100.00;99224.50;5028147;28;20052;-87
2022/09/07 04:23:18;;;;;;;0.30;0.30;;;;;;;13.08;100.00;99224.72;5031095;28;20403;-87
2022/09/07 04:25:48;;;;;;;0.30;0.30;;;;;;;13.02;100.00;99209.44;5014810;28;20025;-87
2022/09/07 04:28:15;;;;;;;0.30;0.30;;;;;;;13.05;100.00;99222.47;5014436;28;20029;-88
2022/09/07 04:30:41;;;;;;;0.40;0.40;;;;;;;13.04;100.00;99226.19;5029737;28;20025;-88
2022/09/07 04:33:06;;;;;;;0.30;0.30;;;;;;;13.00;100.00;99222.34;4998141;28;20494;-85
2022/09/07 04:35:35;;;;;;;0.30;0.30;;;;;;;12.99;100.00;99209.88;5030907;28;20479;-86
2022/09/07 04:38:01;;;;;;;0.30;0.30;;;;;;;12.99;100.00;99201.78;5011865;28;20475;-88
2022/09/07 04:40:27;;;;;;;0.30;0.30;;;;;;;13.13;100.00;99218.63;5013809;28;20041;-87
2022/09/07 04:42:53;;;;;;;0.30;0.30;;;;;;;13.07;100.00;99201.47;4997867;28;20045;-87
2022/09/07 04:45:18;;;;;;;0.25;0.25;;;;;;;13.11;100.00;99215.31;5029990;28;20030;-88
2022/09/07 04:47:47;;;;;;;0.30;0.30;;;;;;;13.09;100.00;99202.06;5019037;28;20249;-86
2022/09/07 04:50:17;;;;;;;0.30;0.30;;;;;;;13.19;100.00;99223.09;5014234;28;20057;-86
2022/09/07 04:52:43;;;;;;;0.30;0.30;;;;;;;13.15;100.00;99206.56;5012884;28;20029;-86
2022/09/07 04:55:09;;;;;;;0.30;0.30;;;;;;;13.09;100.00;99204.75;5028475;28;20057;-85
2022/09/07 04:57:35;;;;;;;0.30;0.30;;;;;;;13.23;100.00;99212.66;5014359;28;20037;-88
2022/09/07 05:00:01;;;;;;;0.30;0.30;;;;;;;13.18;100.00;99211.47;5031719;28;20498;-87
2022/09/07 05:02:26;;;;;;;0.40;0.40;;;;;;;13.25;100.00;99216.75;5028109;28;20466;-86
2022/09/07 05:04:52;;;;;;;0.30;0.30;;;;;;;13.22;100.00;99214.53;4998003;28;20039;-86
2022/09/07 05:07:18;;;;;;;0.30;0.30;;;;;;;13.22;100.00;99205.63;5014668;28;20098;-85
2022/09/07 05:09:43;;;;;;;0.30;0.30;;;;;;;13.18;100.00;99199.88;5031668;28;20108;-87
2022/09/07 05:12:09;;;;;;;0.30;0.30;;;;;;;13.21;100.00;99196.69;5027908;28;20429;-88
2022/09/07 05:14:34;;;;;;;0.30;0.30;;;;;;;13.18;100.00;99184.50;5032748;28;20475;-87
2022/09/07 05:17:00;;;;;;;0.30;0.30;;;;;;;13.20;100.00;99201.28;5031538;28;20029;-87
2022/09/07 05:19:26;;;;;;;0.30;0.30;;;;;;;13.20;100.00;99198.59;5030411;28;20041;-87
2022/09/07 05:21:52;;;;;;;0.30;0.30;;;;;;;13.12;100.00;99190.78;5012682;28;20606;-88
2022/09/07 05:24:18;;;;;;;0.30;0.30;;;;;;;13.13;100.00;99199.75;5030063;28;20037;-89
2022/09/07 05:26:44;;;;;;;0.20;0.20;;;;;;;13.05;100.00;99184.69;5029771;28;20391;-88
2022/09/07 05:29:10;;;;;;;0.30;0.30;;;;;;;13.13;100.00;99199.75;5030857;28;20447;-89
2022/09/07 05:31:35;;;;;;;0.30;0.30;;;;;;;13.19;100.00;99207.72;5029584;28;20079;-90
2022/09/07 05:34:01;;;;;;;0.30;0.30;;;;;;;13.25;100.00;99213.25;4996562;28;20044;-88
2022/09/07 05:36:28;;;;;;;0.30;0.30;;;;;;;13.27;100.00;99203.91;5031952;28;20128;-92
2022/09/07 05:38:54;;;;;;;0.30;0.30;;;;;;;13.22;100.00;99195.63;5030002;28;20112;-89
2022/09/07 05:41:23;;;;;;;0.30;0.30;;;;;;;13.30;100.00;99202.63;4995703;28;20479;-90
2022/09/07 05:43:49;;;;;;;0.30;0.30;;;;;;;13.27;100.00;99203.91;5013495;28;20029;-88
2022/09/07 05:46:16;;;;;;;0.30;0.30;;;;;;;13.29;100.00;99204.50;5021025;28;20060;-87
2022/09/07 05:48:42;;;;;;;0.30;0.30;;;;;;;13.27;100.00;99203.06;4997059;28;20506;-87
2022/09/07 05:51:08;;;;;;;0.30;0.30;;;;;;;13.15;100.00;99190.34;5028825;28;20086;-88
2022/09/07 05:53:35;;;;;;;0.30;0.30;;;;;;;13.09;100.00;99185.84;5028654;28;20076;-89
2022/09/07 05:56:01;;;;;;;0.30;0.30;;;;;;;13.00;100.00;99170.25;4997028;28;20044;-90
2022/09/07 05:58:27;;;;;;;0.30;0.30;;;;;;;13.06;100.00;99183.63;5030399;28;20506;-90
2022/09/07 06:01:01;;;;;;;0.30;0.30;;;;;;;13.08;100.00;99192.31;5027234;28;20033;-90
2022/09/07 06:03:27;;;;;;;0.30;0.30;;;;;;;13.09;100.00;99203.94;5012921;28;20045;-90
2022/09/07 06:06:06;;;;;;;0.30;0.30;;;;;;;12.87;100.00;99168.56;5029922;28;20298;-91
2022/09/07 06:08:33;;;;;;;0.30;0.30;;;;;;;13.03;100.00;99194.06;5014946;28;20037;-88
2022/09/07 06:11:05;;;;;;;0.30;0.30;;;;;;;13.00;100.00;99194.53;5031595;28;20124;-88
2022/09/07 06:13:30;;;;;;;0.30;0.30;;;;;;;13.02;100.00;99195.09;5020626;28;20042;-89
2022/09/07 06:16:04;;;;;;;0.30;0.30;;;;;;;13.05;100.00;99187.41;5044203;28;20067;-87
2022/09/07 06:18:30;;;;;;;;;;;;;;;13.16;100.00;99202.78;5046535;28;20021;-86
2022/09/07 06:21:04;;;;;;;0.30;0.30;;;;;;;13.20;100.00;99192.34;5047519;28;19921;-88
2022/09/07 06:23:31;;;;;;;0.30;0.30;;;;;;;13.23;100.00;99181.09;5014646;28;20094;-88
2022/09/07 06:25:56;;;;;;;0.30;0.30;;;;;;;13.35;100.00;99198.16;5050758;28;20013;-89
2022/09/07 06:28:30;;;;;;;0.30;0.30;;;;;;;13.38;100.00;99200.38;5039615;28;20041;-89
2022/09/07 06:31:18;;;;;;;0.32;0.32;;;;;;;13.29;100.00;99179.38;5035381;28;20116;-89
2022/09/07 06:33:46;;;;;;;0.30;0.30;;;;;;;13.40;100.00;99189.38;4996861;28;20025;-88
2022/09/07 06:36:17;;;;;;;0.30;0.30;;;;;;;13.43;100.00;99191.59;5029286;28;20036;-88
2022/09/07 06:38:43;;;;;;;0.30;0.30;;;;;;;13.43;100.00;99196.19;5010501;28;20642;-90
2022/09/07 06:41:15;;;;;;;0.30;0.30;;;;;;;13.37;100.00;99190.66;4995961;28;20129;-88
2022/09/07 06:43:41;;;;;;;0.30;0.30;;;;;;;13.38;100.00;99189.59;5013383;28;20468;-90
2022/09/07 06:46:07;;;;;;;0.30;0.30;;;;;;;13.39;100.00;99193.97;5034101;28;20094;-90
2022/09/07 06:48:33;;;;;;;0.30;0.30;;;;;;;13.36;100.00;99186.31;5033248;28;20033;-88
2022/09/07 06:51:03;;;;;;;0.30;0.30;;;;;;;13.35;100.00;99183.84;5032753;28;20063;-88
2022/09/07 06:53:30;;;;;;;0.30;0.30;;;;;;;13.42;100.00;99195.38;5005870;28;20044;-87
2022/09/07 06:55:56;;;;;;;0.30;0.30;;;;;;;13.43;100.00;99201.59;5032722;28;20123;-88
2022/09/07 06:58:25;;;;;;;0.30;0.30;;;;;;;13.41;100.00;99202.63;5032774;28;20112;-90
2022/09/07 07:00:52;;;;;;;0.30;0.30;;;;;;;13.38;100.00;99196.88;5016689;28;20037;-87
2022/09/07 07:03:18;;;;;;;0.30;0.30;;;;;;;13.38;100.00;99195.00;5032467;28;20037;-87
2022/09/07 07:05:54;;;;;;;0.30;0.30;;;;;;;13.39;100.00;99191.25;5032749;28;20021;-87
2022/09/07 07:08:22;;;;;;;0.30;0.30;;;;;;;13.39;100.00;99207.44;5017037;28;20514;-88
2022/09/07 07:10:48;;;;;;;0.30;0.30;;;;;;;13.36;100.00;99202.53;5030432;28;20501;-88
2022/09/07 07:13:14;;;;;;;0.30;0.30;;;;;;;13.35;100.00;99200.03;5015779;28;20069;-85
2022/09/07 07:15:40;;;;;;;0.30;0.30;;;;;;;13.10;100.00;99165.13;5032421;28;20471;-88
2022/09/07 07:18:06;;;;;;;0.30;0.30;;;;;;;13.28;100.00;99199.31;5032096;28;20037;-85
2022/09/07 07:20:34;;;;;;;0.30;0.30;;;;;;;13.32;100.00;99200.50;5032460;28;20030;-88
2022/09/07 07:23:00;;;;;;;0.30;0.30;;;;;;;13.39;100.00;99209.34;5033156;28;20026;-85
2022/09/07 07:25:26;;;;;;;0.30;0.30;;;;;;;13.44;100.00;99209.44;5031983;28;20387;-84
2022/09/07 07:27:52;;;;;;;0.30;0.30;;;;;;;13.38;100.00;99200.38;5024855;28;20127;-84
2022/09/07 07:30:19;;;;;;;0.35;0.35;;;;;;;13.45;100.00;99216.50;5011609;28;20430;-83
2022/09/07 07:32:45;;;;;;;0.30;0.30;;;;;;;13.56;100.00;99220.28;5030667;28;20060;-85
2022/09/07 07:35:11;;;;;;;0.30;0.30;;;;;;;13.66;100.00;99227.81;5031831;28;20554;-85
2022/09/07 07:37:37;;;;;;;0.30;0.30;;;;;;;13.72;100.00;99222.28;5029198;28;20087;-87
2022/09/07 07:40:08;;;;;;;0.30;0.30;;;;;;;13.77;100.00;99211.59;5013834;28;20037;-86
2022/09/07 07:42:34;;;;;;;0.30;0.30;;;;;;;13.83;100.00;99218.75;5012986;28;20112;-85
2022/09/07 07:45:01;;;;;;;0.30;0.30;;;;;;;13.92;100.00;99213.84;5029536;28;20036;-86
2022/09/07 07:47:27;;;;;;;0.20;0.20;;;;;;;14.05;100.00;99221.69;5031553;28;20116;-87
2022/09/07 07:49:53;;;;;;;0.30;0.30;;;;;;;14.12;100.00;99221.56;5031623;28;20033;-86
2022/09/07 07:52:19;;;;;;;0.30;0.30;;;;;;;14.20;100.00;99228.50;5030858;28;20017;-87
2022/09/07 07:54:44;;;;;;;0.30;0.30;;;;;;;14.22;100.00;99227.19;5014820;28;20033;-85
2022/09/07 07:57:10;;;;;;;0.30;0.30;;;;;;;14.26;100.00;99228.38;5031876;28;20029;-86
2022/09/07 07:59:37;;;;;;;0.30;0.30;;;;;;;14.33;100.00;99227.41;5032763;28;20033;-87
2022/09/07 08:02:04;;;;;;;0.30;0.30;;;;;;;14.36;100.00;99238.56;5029804;28;20103;-87
2022/09/07 08:04:31;;;;;;;0.30;0.30;;;;;;;14.36;100.00;99224.25;5031346;28;20040;-89
2022/09/07 08:06:56;;;;;;;0.30;0.30;;;;;;;14.38;100.00;99231.06;5015447;28;20037;-91
2022/09/07 08:09:22;;;;;;;0.30;0.30;;;;;;;14.39;100.00;99238.09;5032699;28;20529;-88
2022/09/07 08:11:48;;;;;;;0.35;0.35;;;;;;;14.37;100.00;99255.63;5032546;28;20017;-86
2022/09/07 08:14:14;;;;;;;0.30;0.30;;;;;;;14.38;100.00;99241.88;5026750;28;20064;-87
2022/09/07 08:16:43;;;;;;;0.30;0.30;;;;;;;14.35;100.00;99242.34;5031886;28;20029;-87
2022/09/07 08:19:09;;;;;;;0.30;0.30;;;;;;;14.30;100.00;99242.25;5028604;28;20026;-85
2022/09/07 08:21:35;;;;;;;0.30;0.30;;;;;;;14.24;100.00;99235.91;5030821;28;20029;-87
2022/09/07 08:24:01;;;;;;;0.30;0.30;;;;;;;14.22;100.00;99239.91;5032519;28;20034;-87
2022/09/07 08:26:27;;;;;;;0.30;0.30;;;;;;;14.22;100.00;99231.78;5030717;28;20026;-87
2022/09/07 08:28:52;;;;;;;0.30;0.30;;;;;;;14.27;100.00;99234.59;5014585;28;20041;-88
2022/09/07 08:31:18;;;;;;;0.30;0.30;;;;;;;14.26;100.00;99216.72;5030194;28;20034;-85
2022/09/07 08:33:44;;;;;;;0.30;0.30;;;;;;;14.46;100.00;99232.56;5032042;28;20434;-85
2022/09/07 08:36:12;;;;;;;0.40;0.40;;;;;;;14.62;100.00;99236.44;5028112;28;20440;-87
2022/09/07 08:38:38;;;;;;;0.30;0.30;;;;;;;14.77;100.00;99233.22;5030835;28;20699;-88
2022/09/07 08:41:39;;;;;;;0.40;0.40;;;;;;;15.04;100.00;99238.88;5024043;28;20549;-87
2022/09/07 08:44:19;;;;;;;0.32;0.32;;;;;;;15.24;100.00;99233.84;5019009;28;20045;-85
2022/09/07 08:47:12;;;;;;;0.30;0.30;;;;;;;15.49;100.00;99236.16;5028846;28;20438;-85
2022/09/07 08:49:59;;;;;;;0.30;0.30;;;;;;;15.77;100.00;99235.31;5039582;28;20164;-87
2022/09/07 08:52:45;;;;;;;0.40;0.40;;;;;;;16.02;100.00;99232.16;5026731;28;20472;-88
2022/09/07 08:55:20;;;;;;;0.47;0.47;;;;;;;16.35;100.00;99238.56;4998941;28;20026;-86
2022/09/07 08:57:52;;;;;;;0.40;0.40;;;;;;;16.68;100.00;99243.06;4990393;28;20069;-87
2022/09/07 09:00:18;;;;;;;0.40;0.40;;;;;;;16.98;100.00;99239.09;5062106;28;20076;-88
2022/09/07 09:02:44;;;;;;;0.40;0.40;;;;;;;17.26;100.00;99248.91;5022372;28;20029;-88
2022/09/07 09:05:37;;;;;;;0.40;0.40;;;;;;;17.40;100.00;99253.91;5031415;28;20032;-86
2022/09/07 09:08:12;;;;;;;0.30;0.30;;;;;;;17.33;100.00;99254.13;5044266;28;20491;-87
2022/09/07 09:11:00;;;;;;;0.30;0.30;;;;;;;17.32;100.00;99253.28;5027997;28;20075;-87
2022/09/07 09:14:09;;;;;;;0.40;0.40;;;;;;;17.67;100.00;99216.63;4991277;28;20030;-88
2022/09/07 09:16:41;;;;;;;0.40;0.40;;;;;;;19.75;100.00;99239.56;5018825;28;20553;-88
2022/09/07 09:19:38;;;;;;;0.30;0.30;;;;;;;19.27;100.00;99247.13;5011319;28;20040;-87
2022/09/07 09:22:19;;;;;;;0.30;0.30;;;;;;;18.93;100.00;99244.06;5011619;28;20183;-87
2022/09/07 09:25:15;;;;;;;0.32;0.32;;;;;;;18.88;100.00;99241.31;5011482;28;20493;-87
2022/09/07 09:27:41;;;;;;;0.30;0.30;;;;;;;19.04;100.00;99240.25;5027747;28;20029;-87
2022/09/07 09:30:33;;;;;;;0.32;0.32;;;;;;;19.01;100.00;99237.28;5011480;28;20455;-88
2022/09/07 09:33:17;;;;;;;;;;;;;;;18.75;100.00;99239.91;4993700;28;20041;-88
2022/09/07 09:35:48;;;;;;;0.38;0.38;;;;;;;18.60;100.00;99239.81;5026942;28;19925;-86
2022/09/07 09:38:33;;;;;;;0.40;0.40;;;;;;;18.97;100.00;99227.97;5028152;28;20021;-87
2022/09/07 09:41:07;;;;;;;0.40;0.40;;;;;;;19.55;100.00;99234.91;5011187;28;20037;-87
2022/09/07 09:43:54;;;;;;;0.70;0.70;;;;;;;22.07;100.00;99235.44;5011534;28;20492;-88
2022/09/07 09:46:27;;;;;;;0.50;0.50;;;;;;;24.36;88.63;99232.44;4996533;28;20108;-89
2022/09/07 09:49:00;;;;;;;8.95;1.95;;;;;;;22.54;90.91;99230.28;5010124;28;20041;-86
2022/09/07 09:51:30;;;;;;;1.30;1.10;;;;;;;22.43;92.93;99224.13;5040643;28;20107;-87
2022/09/07 09:54:32;;;;;;;0.90;0.90;;;;;;;21.70;96.12;99236.06;5016751;28;20454;-89
2022/09/07 09:56:58;;;;;;;0.30;0.30;;;;;;;20.64;100.00;99233.69;5031188;28;20053;-89
2022/09/07 09:59:29;;;;;;;0.32;0.32;;;;;;;20.02;100.00;99232.97;5031783;28;20097;-89
2022/09/07 10:01:56;;;;;;;0.40;0.40;;;;;;;19.32;100.00;99225.34;5026849;28;20124;-89
2022/09/07 10:04:32;;;;;;;0.40;0.40;;;;;;;19.13;100.00;99235.09;5028261;28;20025;-89
2022/09/07 10:07:16;;;;;;;0.30;0.30;;;;;;;19.04;100.00;99240.25;5012899;28;20041;-88
2022/09/07 10:09:48;;;;;;;0.30;0.30;;;;;;;18.74;100.00;99230.06;5013465;28;20037;-90
2022/09/07 10:12:40;;;;;;;0.30;0.30;;;;;;;18.80;100.00;99236.38;5021171;28;20037;-87
2022/09/07 10:15:07;;;;;;;1.02;0.95;;;;;;;18.71;100.00;99240.66;5022349;28;20042;-84
2022/09/07 10:17:42;;;;;;;0.40;0.40;;;;;;;18.60;100.00;99234.34;5006108;28;20500;-86
2022/09/07 10:20:14;;;;;;;1.17;1.17;;;;;;;18.57;100.00;99232.97;5012477;28;20045;-85
2022/09/07 10:22:43;;;;;;;3.45;1.92;;;;;;;18.58;100.00;99236.56;5033135;28;20068;-83
2022/09/07 10:25:30;;;;;;;10.93;1.45;;;;;;;18.72;100.00;99231.44;5029127;28;20028;-84
2022/09/07 10:28:04;;;;;;;2.38;0.90;;;;;;;18.97;100.00;99244.31;5014776;28;20099;-85
2022/09/07 10:30:50;;;;;;;14.55;3.13;;;;;;;19.14;100.00;99241.38;5029002;28;20476;-85
2022/09/07 10:33:21;;;;;;;5.05;2.00;;;;;;;19.20;100.00;99229.41;5012549;28;20087;-81
2022/09/07 10:36:07;;;;;;;5.25;2.05;;;;;;;19.37;100.00;99237.31;5026392;28;20511;-85
2022/09/07 10:38:38;;;;;;;7.20;1.58;;;;;;;19.42;100.00;99245.50;5032159;28;20041;-85
2022/09/07 10:41:10;;;;;;;6.57;2.05;;;;;;;19.55;100.00;99240.34;5027774;28;20034;-85
2022/09/07 10:43:44;;;;;;;12.32;3.13;;;;;;;20.25;100.00;99236.22;5015360;28;20134;-85
2022/09/07 10:46:09;;;;;;;16.33;4.75;;;;;;;21.19;100.00;99231.72;5026862;28;20041;-86
2022/09/07 10:49:12;;;;;;;11.30;2.90;;;;;;;21.80;97.07;99241.41;5028321;28;20030;-84
2022/09/07 10:51:59;;;;;;;12.25;2.33;;;;;;;22.72;94.99;99240.47;5031720;28;20041;-86
2022/09/07 10:54:36;;;;;;;16.42;2.97;;;;;;;24.84;87.66;99243.03;5015306;28;20032;-85
2022/09/07 10:57:19;;;;;;;7.10;2.45;;;;;;;26.34;79.37;99241.13;5033755;28;20033;-85
2022/09/07 11:00:18;;;;;;;11.43;3.05;;;;;;;27.13;75.58;99238.28;5026910;28;20061;-83
2022/09/07 11:02:59;;;;;;;17.58;3.50;;;;;;;27.78;69.16;99233.72;4971448;28;20036;-85
2022/09/07 11:05:53;;;;;;;12.88;2.50;;;;;;;28.01;69.62;99247.38;5016460;28;20060;-85
2022/09/07 11:09:08;;;;;;;16.08;2.78;;;;;;;27.57;68.41;99249.34;5033113;28;20029;-86
2022/09/07 11:11:45;;;;;;;10.30;2.42;;;;;;;25.90;75.79;99248.34;5017325;28;20091;-85
2022/09/07 11:14:16;;;;;;;11.18;2.63;;;;;;;24.13;82.59;99235.09;5026906;28;20037;-86
2022/09/07 11:16:58;;;;;;;10.68;3.42;;;;;;;22.85;92.00;99235.41;5030723;28;20051;-84
2022/09/07 11:19:26;;;;;;;16.13;2.87;;;;;;;22.70;94.67;99233.66;5029880;28;20025;-85
2022/09/07 11:22:50;;;;;;;11.82;2.45;;;;;;;22.36;94.56;99229.13;5015874;28;20279;-84
2022/09/07 11:25:29;;;;;;;12.70;2.70;;;;;;;21.98;97.62;99225.41;4983578;28;20046;-84
2022/09/07 11:28:15;;;;;;;17.08;2.72;;;;;;;22.01;96.05;99230.28;4962963;28;20061;-85
2022/09/07 11:30:50;;;;;;;11.77;4.07;;;;;;;21.75;95.65;99219.56;5023952;28;20368;-84
2022/09/07 11:33:22;;;;;;;20.83;3.88;;;;;;;21.12;99.82;99228.50;5032857;28;20037;-83
2022/09/07 11:36:01;;;;;;;14.85;3.42;;;;;;;20.48;100.00;99224.69;5032459;28;20526;-84
2022/09/07 11:39:05;;;;;;;16.20;4.70;;;;;;;19.71;100.00;99238.47;5033261;28;20052;-83
2022/09/07 11:41:48;;;;;;;22.20;4.38;;;;;;;18.71;100.00;99225.16;5025062;28;20041;-87
2022/09/07 11:44:57;;;;;;;18.40;6.45;;;;;;;17.52;100.00;99244.53;5020727;28;20041;-86
2022/09/07 11:47:32;;;;;;;37.20;11.73;;;;;;;16.70;100.00;99246.34;5028582;28;20049;-85
2022/09/07 11:49:58;;;;;;;29.75;9.15;;;;;;;16.19;100.00;99225.88;5050422;28;20081;-84